createdAt,value
2019-01-09T00:01:10.774Z,98158.22
2019-01-09T00:03:21.812Z,98146.66
2019-01-09T00:05:32.619Z,98163.12
2019-01-09T00:07:43.554Z,98167.42
2019-01-09T00:09:54.351Z,98154.92
2019-01-09T00:12:05.195Z,98161.90
2019-01-09T00:14:15.980Z,98153.91
2019-01-09T00:16:26.811Z,98164.67
2019-01-09T00:18:37.608Z,98154.33
2019-01-09T00:20:48.438Z,98158.63
2019-01-09T00:22:59.228Z,98153.11
2019-01-09T00:25:10.040Z,98150.16
2019-01-09T00:27:20.866Z,98142.94
2019-01-09T00:29:31.666Z,98140.33
2019-01-09T00:31:42.502Z,98136.72
2019-01-09T00:36:25.660Z,98132.17
2019-01-09T00:38:36.496Z,98115.73
2019-01-09T00:40:47.423Z,98127.62
2019-01-09T00:42:58.347Z,98111.81
2019-01-09T00:45:09.243Z,98126.33
2019-01-09T00:47:20.065Z,98126.68
2019-01-09T00:49:30.967Z,98125.50
2019-01-09T00:51:41.864Z,98121.71
2019-01-09T00:53:52.671Z,98121.16
2019-01-09T00:56:03.461Z,98114.45
2019-01-09T00:58:14.399Z,98113.00
2019-01-09T01:00:25.204Z,98118.52
2019-01-09T01:03:15.763Z,98117.75
2019-01-09T01:06:06.297Z,98116.13
2019-01-09T01:08:56.845Z,98128.23
2019-01-09T01:11:49.298Z,98126.50
2019-01-09T01:14:39.940Z,98129.24
2019-01-09T01:17:32.375Z,98124.69
2019-01-09T01:20:04.956Z,98112.81
2019-01-09T01:22:37.548Z,98116.77
2019-01-09T01:25:28.107Z,98119.27
2019-01-09T01:28:20.544Z,98124.16
2019-01-09T01:31:12.995Z,98119.02
2019-01-09T01:34:05.452Z,98105.80
2019-01-09T01:36:38.042Z,98089.06
2019-01-09T01:39:28.635Z,98081.78
2019-01-09T01:42:21.112Z,98085.52
2019-01-09T01:45:13.602Z,98095.72
2019-01-09T01:47:46.190Z,98085.72
2019-01-09T01:50:18.764Z,98085.34
2019-01-09T01:53:14.241Z,98081.86
2019-01-09T01:56:04.783Z,98082.38
2019-01-09T01:58:37.377Z,98082.70
2019-01-09T02:01:29.811Z,98091.47
2019-01-09T02:04:22.271Z,98088.10
2019-01-09T02:06:54.866Z,98089.16
2019-01-09T02:09:47.326Z,98074.77
2019-01-09T02:12:39.798Z,98078.74
2019-01-09T02:15:30.326Z,98079.73
2019-01-09T02:18:22.802Z,98094.47
2019-01-09T02:21:13.366Z,98082.50
2019-01-09T02:24:05.819Z,98084.59
2019-01-09T02:26:38.393Z,98090.17
2019-01-09T02:29:28.969Z,98084.39
2019-01-09T02:32:21.422Z,98078.43
2019-01-09T02:34:32.241Z,98079.33
2019-01-09T02:36:43.047Z,98084.30
2019-01-09T02:38:53.870Z,98082.19
2019-01-09T02:41:04.669Z,98081.92
2019-01-09T02:43:15.457Z,98073.77
2019-01-09T02:45:26.283Z,98075.31
2019-01-09T02:47:37.066Z,98082.50
2019-01-09T02:52:26.722Z,98070.30
2019-01-09T02:54:37.540Z,98076.27
2019-01-09T02:56:48.360Z,98073.32
2019-01-09T02:58:59.270Z,98072.84
2019-01-09T03:01:10.098Z,98072.84
2019-01-09T03:03:20.889Z,98074.22
2019-01-09T03:05:31.694Z,98066.14
2019-01-09T03:07:42.529Z,98061.84
2019-01-09T03:09:53.351Z,98055.33
2019-01-09T03:12:04.160Z,98056.00
2019-01-09T03:14:15.001Z,98055.33
2019-01-09T03:16:25.807Z,98049.02
2019-01-09T03:18:36.608Z,98053.31
2019-01-09T03:20:47.425Z,98040.28
2019-01-09T03:22:58.235Z,98042.41
2019-01-09T03:25:09.059Z,98033.48
2019-01-09T03:27:19.868Z,98036.44
2019-01-09T03:29:30.682Z,98038.11
2019-01-09T03:31:41.487Z,98037.34
2019-01-09T03:33:52.298Z,98041.61
2019-01-09T03:36:03.159Z,98040.38
2019-01-09T03:38:13.971Z,98034.90
2019-01-09T03:40:24.768Z,98038.36
2019-01-09T03:42:35.682Z,98026.08
2019-01-09T03:44:46.485Z,98025.56
2019-01-09T03:46:57.326Z,98011.52
2019-01-09T03:49:08.136Z,98026.40
2019-01-09T03:51:18.970Z,98021.23
2019-01-09T03:53:29.789Z,98015.16
2019-01-09T03:55:40.641Z,98025.56
2019-01-09T03:57:51.536Z,98022.33
2019-01-09T04:00:24.140Z,98014.63
2019-01-09T04:02:34.936Z,98017.58
2019-01-09T04:04:45.730Z,98014.38
2019-01-09T04:06:56.561Z,98012.80
2019-01-09T04:09:07.354Z,98016.20
2019-01-09T04:11:18.164Z,98010.44
2019-01-09T04:13:28.953Z,98016.91
2019-01-09T04:15:39.955Z,98011.33
2019-01-09T04:17:50.770Z,98011.94
2019-01-09T04:20:01.690Z,98004.92
2019-01-09T04:22:12.475Z,98001.94
2019-01-09T04:24:23.280Z,98002.06
2019-01-09T04:26:34.101Z,98005.52
2019-01-09T04:28:44.906Z,97995.42
2019-01-09T04:30:55.716Z,98001.03
2019-01-09T04:33:06.526Z,98006.22
2019-01-09T04:35:17.314Z,98001.64
2019-01-09T04:37:28.117Z,98003.04
2019-01-09T04:39:38.916Z,97997.91
2019-01-09T04:41:49.728Z,97992.46
2019-01-09T04:44:00.525Z,97986.44
2019-01-09T04:46:11.317Z,97985.16
2019-01-09T04:48:22.131Z,97976.12
2019-01-09T04:50:32.933Z,97971.83
2019-01-09T04:52:43.755Z,97972.24
2019-01-09T04:54:54.545Z,97971.50
2019-01-09T04:57:05.374Z,97969.77
2019-01-09T04:59:16.193Z,97975.09
2019-01-09T05:01:26.982Z,97969.42
2019-01-09T05:03:37.908Z,97968.78
2019-01-09T05:05:48.712Z,97972.19
2019-01-09T05:07:59.518Z,97969.68
2019-01-09T05:10:10.318Z,97976.13
2019-01-09T05:12:21.174Z,97973.53
2019-01-09T05:14:31.961Z,97970.00
2019-01-09T05:16:42.757Z,97969.97
2019-01-09T05:18:53.577Z,97963.95
2019-01-09T05:21:04.394Z,97964.55
2019-01-09T05:23:15.185Z,97968.78
2019-01-09T05:25:25.968Z,97962.31
2019-01-09T05:27:36.773Z,97956.31
2019-01-09T05:29:47.601Z,97958.91
2019-01-09T05:31:58.438Z,97954.23
2019-01-09T05:34:09.253Z,97959.30
2019-01-09T05:36:20.077Z,97960.99
2019-01-09T05:38:30.904Z,97951.19
2019-01-09T05:40:41.714Z,97965.52
2019-01-09T05:42:52.520Z,97957.23
2019-01-09T05:45:03.341Z,97959.36
2019-01-09T05:47:14.141Z,97965.03
2019-01-09T05:49:24.976Z,97959.39
2019-01-09T05:51:35.776Z,97960.58
2019-01-09T05:53:46.566Z,97964.13
2019-01-09T05:55:57.381Z,97967.98
2019-01-09T05:58:08.179Z,97961.38
2019-01-09T06:00:19.010Z,97961.77
2019-01-09T06:02:29.825Z,97968.72
2019-01-09T06:04:40.641Z,97965.70
2019-01-09T06:06:51.448Z,97976.83
2019-01-09T06:09:43.922Z,97981.80
2019-01-09T06:11:54.742Z,97977.95
2019-01-09T06:14:05.534Z,97972.47
2019-01-09T06:16:16.335Z,97976.52
2019-01-09T06:18:27.144Z,97977.38
2019-01-09T06:20:37.947Z,97984.27
2019-01-09T06:22:48.900Z,97980.03
2019-01-09T06:24:59.701Z,97991.06
2019-01-09T06:27:10.522Z,97997.64
2019-01-09T06:29:21.370Z,97988.22
2019-01-09T06:31:32.176Z,97992.95
2019-01-09T06:33:42.975Z,97990.48
2019-01-09T06:35:53.769Z,97993.27
2019-01-09T06:38:04.606Z,97998.64
2019-01-09T06:40:15.410Z,97999.58
2019-01-09T06:42:26.240Z,98003.70
2019-01-09T06:44:37.030Z,98010.31
2019-01-09T06:46:47.848Z,98009.14
2019-01-09T06:48:58.640Z,98015.02
2019-01-09T06:51:09.465Z,98014.05
2019-01-09T06:53:20.308Z,98007.09
2019-01-09T06:55:31.135Z,98021.00
2019-01-09T06:57:41.917Z,98014.30
2019-01-09T06:59:52.721Z,98025.19
2019-01-09T07:02:03.556Z,98017.11
2019-01-09T07:04:14.352Z,98024.18
2019-01-09T07:06:25.135Z,98026.16
2019-01-09T07:08:35.968Z,98025.17
2019-01-09T07:10:46.755Z,98032.17
2019-01-09T07:12:57.585Z,98037.23
2019-01-09T07:15:11.748Z,98034.34
2019-01-09T07:17:21.104Z,98033.07
2019-01-09T07:19:31.898Z,98038.44
2019-01-09T07:21:45.600Z,98037.21
2019-01-09T07:23:55.408Z,98036.49
2019-01-09T07:26:06.234Z,98038.20
2019-01-09T07:28:36.937Z,98043.50
2019-01-09T07:30:47.784Z,98043.50
2019-01-09T07:32:58.578Z,98040.10
2019-01-09T07:35:09.422Z,98040.04
2019-01-09T07:37:20.210Z,98038.38
2019-01-09T07:39:31.031Z,98035.72
2019-01-09T07:41:41.829Z,98040.31
2019-01-09T07:43:52.666Z,98043.08
2019-01-09T07:46:03.543Z,98037.95
2019-01-09T07:48:14.264Z,98036.77
2019-01-09T07:50:25.077Z,98039.63
2019-01-09T07:52:35.879Z,98040.16
2019-01-09T07:54:46.696Z,98042.52
2019-01-09T07:56:57.491Z,98036.31
2019-01-09T07:59:08.325Z,98043.56
2019-01-09T08:01:19.143Z,98035.42
2019-01-09T08:03:29.945Z,98041.00
2019-01-09T08:05:40.758Z,98039.63
2019-01-09T08:07:54.185Z,98041.36
2019-01-09T08:10:45.944Z,98037.98
2019-01-09T08:12:56.770Z,98037.42
2019-01-09T08:15:07.750Z,98046.33
2019-01-09T08:17:19.095Z,98039.56
2019-01-09T08:19:29.913Z,98053.09
2019-01-09T08:21:40.732Z,98045.50
2019-01-09T08:23:51.539Z,98046.12
2019-01-09T08:26:02.477Z,98044.99
2019-01-09T08:28:13.267Z,98042.73
2019-01-09T08:30:24.101Z,98039.23
2019-01-09T08:32:35.018Z,98045.58
2019-01-09T08:34:45.802Z,98044.01
2019-01-09T08:36:56.628Z,98042.37
2019-01-09T08:39:07.442Z,98044.60
2019-01-09T08:41:18.388Z,98044.60
2019-01-09T08:43:29.232Z,98049.58
2019-01-09T08:45:40.043Z,98058.20
2019-01-09T08:47:50.974Z,98068.42
2019-01-09T08:50:23.533Z,98075.24
2019-01-09T08:52:34.345Z,98074.11
2019-01-09T08:54:45.140Z,98084.86
2019-01-09T08:56:55.967Z,98085.25
2019-01-09T08:59:06.755Z,98084.72
2019-01-09T09:01:17.546Z,98088.73
2019-01-09T09:03:28.358Z,98096.48
2019-01-09T09:05:39.154Z,98094.90
2019-01-09T09:08:31.638Z,98103.14
2019-01-09T09:10:42.422Z,98106.62
2019-01-09T09:12:53.253Z,98113.70
2019-01-09T09:15:45.695Z,98113.39
2019-01-09T09:17:56.606Z,98125.81
2019-01-09T09:20:49.042Z,98125.06
2019-01-09T09:22:59.850Z,98125.45
2019-01-09T09:25:10.657Z,98130.42
2019-01-09T09:27:21.545Z,98129.75
2019-01-09T09:29:32.389Z,98122.05
2019-01-09T09:31:43.179Z,98128.44
2019-01-09T09:33:54.011Z,98126.52
2019-01-09T09:36:12.104Z,98129.08
2019-01-09T09:38:22.938Z,98134.86
2019-01-09T09:40:33.744Z,98130.31
2019-01-09T09:42:44.572Z,98131.95
2019-01-09T09:44:55.489Z,98136.13
2019-01-09T09:47:06.268Z,98128.86
2019-01-09T09:49:17.120Z,98140.34
2019-01-09T09:51:27.907Z,98137.33
2019-01-09T09:53:38.729Z,98141.14
2019-01-09T09:55:49.550Z,98141.39
2019-01-09T09:58:05.604Z,98147.86
2019-01-09T10:00:54.708Z,98143.53
2019-01-09T10:03:05.495Z,98145.66
2019-01-09T10:05:16.321Z,98150.57
2019-01-09T10:07:27.110Z,98152.33
2019-01-09T10:09:37.913Z,98150.06
2019-01-09T10:11:48.735Z,98149.53
2019-01-09T10:13:59.567Z,98153.56
2019-01-09T10:16:10.381Z,98151.83
2019-01-09T10:18:21.174Z,98152.19
2019-01-09T10:20:31.993Z,98140.79
2019-01-09T10:23:04.696Z,98141.83
2019-01-09T10:25:15.502Z,98147.14
2019-01-09T10:27:26.289Z,98141.41
2019-01-09T10:29:37.110Z,98139.31
2019-01-09T10:31:47.908Z,98132.58
2019-01-09T10:33:58.713Z,98132.87
2019-01-09T10:36:09.537Z,98133.97
2019-01-09T10:38:20.434Z,98136.11
2019-01-09T10:40:36.067Z,98135.08
2019-01-09T10:42:44.233Z,98142.55
2019-01-09T10:44:55.083Z,98138.34
2019-01-09T10:47:05.913Z,98140.61
2019-01-09T10:49:16.712Z,98137.21
2019-01-09T10:51:27.627Z,98127.78
2019-01-09T10:53:38.426Z,98137.75
2019-01-09T10:55:49.244Z,98131.06
2019-01-09T10:58:00.170Z,98135.91
2019-01-09T11:00:52.618Z,98132.29
2019-01-09T11:03:03.654Z,98132.26
2019-01-09T11:05:14.846Z,98135.91
2019-01-09T11:07:25.834Z,98137.66
2019-01-09T11:09:36.663Z,98140.73
2019-01-09T11:11:47.482Z,98141.13
2019-01-09T11:13:58.279Z,98136.26
2019-01-09T11:16:09.165Z,98137.03
2019-01-09T11:18:20.009Z,98133.63
2019-01-09T11:20:30.828Z,98133.99
2019-01-09T11:22:41.676Z,98131.75
2019-01-09T11:24:52.483Z,98132.53
2019-01-09T11:27:03.523Z,98129.19
2019-01-09T11:29:14.327Z,98134.89
2019-01-09T11:31:25.138Z,98133.96
2019-01-09T11:33:35.967Z,98135.78
2019-01-09T11:35:46.755Z,98125.91
2019-01-09T11:37:57.571Z,98128.53
2019-01-09T11:40:50.029Z,98117.62
2019-01-09T11:43:00.953Z,98117.11
2019-01-09T11:45:53.408Z,98110.78
2019-01-09T11:48:04.228Z,98104.19
2019-01-09T11:50:56.694Z,98100.48
2019-01-09T11:53:07.502Z,98108.18
2019-01-09T11:55:18.334Z,98104.03
2019-01-09T11:57:29.287Z,98108.55
2019-01-09T11:59:40.113Z,98105.77
2019-01-09T12:01:50.919Z,98110.67
2019-01-09T12:04:01.752Z,98106.02
2019-01-09T12:06:12.543Z,98114.36
2019-01-09T12:08:23.379Z,98121.43
2019-01-09T12:10:34.293Z,98139.06
2019-01-09T12:12:45.094Z,98115.10
2019-01-09T12:14:55.923Z,98108.44
2019-01-09T12:17:06.728Z,98112.00
2019-01-09T12:19:17.562Z,98109.20
2019-01-09T12:21:28.366Z,98114.38
2019-01-09T12:23:39.157Z,98105.53
2019-01-09T12:25:49.991Z,98097.44
2019-01-09T12:28:00.791Z,98100.95
2019-01-09T12:30:31.528Z,98097.68
2019-01-09T12:32:42.336Z,98098.53
2019-01-09T12:34:53.168Z,98092.52
2019-01-09T12:37:03.982Z,98090.42
2019-01-09T12:39:14.785Z,98084.33
2019-01-09T12:41:25.708Z,98082.73
2019-01-09T12:43:36.494Z,98085.59
2019-01-09T12:45:47.333Z,98089.96
2019-01-09T12:47:58.137Z,98099.11
2019-01-09T12:50:50.611Z,98092.00
2019-01-09T12:53:01.400Z,98087.70
2019-01-09T12:55:12.248Z,98082.18
2019-01-09T12:57:23.085Z,98080.83
2019-01-09T12:59:33.907Z,98080.55
2019-01-09T13:01:44.725Z,98089.84
2019-01-09T13:03:55.537Z,98096.19
2019-01-09T13:06:06.452Z,98100.67
2019-01-09T13:08:17.261Z,98093.48
2019-01-09T13:10:28.059Z,98095.16
2019-01-09T13:13:20.534Z,98091.69
2019-01-09T13:15:31.315Z,98089.55
2019-01-09T13:17:42.150Z,98091.22
2019-01-09T13:19:52.958Z,98097.83
2019-01-09T13:22:03.776Z,98096.99
2019-01-09T13:24:14.583Z,98097.73
2019-01-09T13:26:25.391Z,98100.20
2019-01-09T13:28:36.237Z,98093.82
2019-01-09T13:30:47.066Z,98101.88
2019-01-09T13:32:57.922Z,98106.17
2019-01-09T13:35:08.714Z,98108.23
2019-01-09T13:37:19.710Z,98104.34
2019-01-09T13:39:31.102Z,98109.95
2019-01-09T13:41:43.235Z,98110.86
2019-01-09T13:43:54.095Z,98109.38
2019-01-09T13:46:04.897Z,98104.33
2019-01-09T13:48:15.908Z,98111.23
2019-01-09T13:50:26.691Z,98115.61
2019-01-09T13:52:37.597Z,98116.16
2019-01-09T13:54:48.457Z,98114.03
2019-01-09T13:56:59.243Z,98116.60
2019-01-09T13:59:10.074Z,98111.14
2019-01-09T14:01:20.896Z,98122.57
2019-01-09T14:03:31.718Z,98137.11
2019-01-09T14:05:42.537Z,98133.64
2019-01-09T14:07:53.360Z,98144.59
2019-01-09T14:10:45.822Z,98140.14
2019-01-09T14:12:56.646Z,98141.81
2019-01-09T14:15:49.085Z,98147.23
2019-01-09T14:17:59.983Z,98146.23
2019-01-09T14:20:52.470Z,98155.41
2019-01-09T14:23:03.408Z,98154.36
2019-01-09T14:25:55.877Z,98157.60
2019-01-09T14:28:06.669Z,98160.92
2019-01-09T14:30:59.144Z,98163.30
2019-01-09T14:33:09.969Z,98167.95
2019-01-09T14:35:20.881Z,98171.33
2019-01-09T14:37:31.712Z,98167.06
2019-01-09T14:39:48.032Z,98165.33
2019-01-09T14:41:55.256Z,98176.92
2019-01-09T14:44:06.074Z,98171.73
2019-01-09T14:46:16.887Z,98172.61
2019-01-09T14:48:27.693Z,98173.75
2019-01-09T14:50:38.530Z,98183.09
2019-01-09T14:52:49.321Z,98182.28
2019-01-09T14:55:00.209Z,98184.37
2019-01-09T14:57:11.069Z,98194.02
2019-01-09T14:59:21.867Z,98197.49
2019-01-09T15:01:32.699Z,98194.62
2019-01-09T15:03:43.535Z,98200.19
2019-01-09T15:05:54.329Z,98201.87
2019-01-09T15:08:05.118Z,98209.63
2019-01-09T15:10:57.573Z,98209.92
2019-01-09T15:13:08.376Z,98205.84
2019-01-09T15:15:19.301Z,98212.22
2019-01-09T15:17:30.134Z,98217.43
2019-01-09T15:19:40.931Z,98222.63
2019-01-09T15:21:51.758Z,98223.56
2019-01-09T15:24:08.393Z,98222.28
2019-01-09T15:26:15.492Z,98225.44
2019-01-09T15:28:26.301Z,98235.80
2019-01-09T15:30:37.212Z,98235.47
2019-01-09T15:32:48.042Z,98230.28
2019-01-09T15:34:58.849Z,98230.23
2019-01-09T15:37:09.676Z,98236.19
2019-01-09T15:39:20.503Z,98227.09
2019-01-09T15:41:31.338Z,98233.22
2019-01-09T15:43:42.159Z,98232.08
2019-01-09T15:45:52.980Z,98238.34
2019-01-09T15:48:03.908Z,98235.08
2019-01-09T15:50:34.590Z,98234.31
2019-01-09T15:52:45.439Z,98234.66
2019-01-09T15:54:56.273Z,98235.47
2019-01-09T15:57:07.110Z,98245.12
2019-01-09T15:59:17.946Z,98242.81
2019-01-09T16:01:28.743Z,98238.77
2019-01-09T16:03:39.548Z,98241.11
2019-01-09T16:05:50.365Z,98244.16
2019-01-09T16:08:01.206Z,98247.20
2019-01-09T16:10:53.671Z,98256.70
2019-01-09T16:13:04.518Z,98266.97
2019-01-09T16:15:56.981Z,98274.62
2019-01-09T16:18:07.945Z,98271.75
2019-01-09T16:21:00.377Z,98271.89
2019-01-09T16:23:11.317Z,98276.73
2019-01-09T16:25:22.113Z,98273.62
2019-01-09T16:27:32.921Z,98285.34
2019-01-09T16:29:43.758Z,98290.58
2019-01-09T16:31:54.612Z,98292.77
2019-01-09T16:34:05.426Z,98293.58
2019-01-09T16:36:16.241Z,98295.88
2019-01-09T16:38:27.035Z,98307.06
2019-01-09T16:40:37.857Z,98313.47
2019-01-09T16:42:48.665Z,98312.30
2019-01-09T16:44:59.496Z,98315.75
2019-01-09T16:47:10.348Z,98312.81
2019-01-09T16:49:27.892Z,98319.15
2019-01-09T16:51:33.843Z,98319.53
2019-01-09T16:53:44.667Z,98321.76
2019-01-09T16:55:55.498Z,98311.85
2019-01-09T16:58:06.386Z,98313.14
2019-01-09T17:00:38.091Z,98312.81
2019-01-09T17:02:49.009Z,98312.02
2019-01-09T17:04:59.820Z,98319.10
2019-01-09T17:07:10.742Z,98318.33
2019-01-09T17:09:21.570Z,98325.44
2019-01-09T17:11:32.406Z,98329.77
2019-01-09T17:13:43.213Z,98329.77
2019-01-09T17:15:54.164Z,98333.18
2019-01-09T17:18:05.071Z,98332.72
2019-01-09T17:20:35.739Z,98332.83
2019-01-09T17:22:46.656Z,98337.11
2019-01-09T17:24:57.602Z,98339.12
2019-01-09T17:27:08.429Z,98339.50
2019-01-09T17:29:19.236Z,98337.38
2019-01-09T17:31:30.082Z,98345.02
2019-01-09T17:33:40.915Z,98340.34
2019-01-09T17:35:51.954Z,98345.41
2019-01-09T17:38:04.682Z,98345.52
2019-01-09T17:40:57.479Z,98348.52
2019-01-09T17:43:08.330Z,98350.76
2019-01-09T17:45:19.353Z,98341.97
2019-01-09T17:47:30.169Z,98350.53
2019-01-09T17:49:41.076Z,98349.58
2019-01-09T17:51:51.904Z,98353.09
2019-01-09T17:54:03.044Z,98348.48
2019-01-09T17:56:13.999Z,98351.37
2019-01-09T17:58:24.876Z,98358.81
2019-01-09T18:01:17.321Z,98362.27
2019-01-09T18:03:28.156Z,98367.27
2019-01-09T18:05:38.966Z,98370.16
2019-01-09T18:07:51.981Z,98371.55
2019-01-09T18:10:50.018Z,98370.34
2019-01-09T18:12:56.997Z,98373.17
2019-01-09T18:15:31.498Z,98376.34
2019-01-09T18:17:42.315Z,98377.27
2019-01-09T18:19:53.145Z,98377.27
2019-01-09T18:22:03.945Z,98376.83
2019-01-09T18:24:14.794Z,98386.97
2019-01-09T18:26:25.697Z,98381.50
2019-01-09T18:28:36.537Z,98383.68
2019-01-09T18:31:30.914Z,98391.80
2019-01-09T18:34:23.385Z,98391.89
2019-01-09T18:37:15.817Z,98389.73
2019-01-09T18:40:08.289Z,98391.35
2019-01-09T18:42:58.882Z,98394.30
2019-01-09T18:45:51.364Z,98399.95
2019-01-09T18:48:43.821Z,98401.23
2019-01-09T18:51:36.392Z,98399.13
2019-01-09T18:53:47.303Z,98409.75
2019-01-09T18:55:58.169Z,98408.61
2019-01-09T18:58:08.972Z,98407.68
2019-01-09T19:01:01.481Z,98406.45
2019-01-09T19:03:12.275Z,98412.02
2019-01-09T19:05:23.210Z,98407.83
2019-01-09T19:07:34.202Z,98413.73
2019-01-09T19:09:45.113Z,98414.63
2019-01-09T19:11:55.968Z,98416.73
2019-01-09T19:14:06.867Z,98424.02
2019-01-09T19:16:17.915Z,98423.53
2019-01-09T19:18:28.943Z,98423.04
2019-01-09T19:20:39.869Z,98426.03
2019-01-09T19:22:50.726Z,98422.69
2019-01-09T19:27:53.799Z,98429.86
2019-01-09T19:30:46.235Z,98438.87
2019-01-09T19:32:57.069Z,98441.38
2019-01-09T19:35:49.540Z,98441.86
2019-01-09T19:38:00.455Z,98446.20
2019-01-09T19:40:11.473Z,98447.57
2019-01-09T19:42:22.363Z,98453.13
2019-01-09T19:44:33.228Z,98452.94
2019-01-09T19:46:44.018Z,98453.37
2019-01-09T19:48:54.949Z,98454.66
2019-01-09T19:51:47.411Z,98454.21
2019-01-09T19:53:58.341Z,98457.27
2019-01-09T19:56:09.419Z,98460.27
2019-01-09T19:58:20.285Z,98458.98
2019-01-09T20:00:31.222Z,98463.31
2019-01-09T20:02:42.241Z,98466.61
2019-01-09T20:04:53.065Z,98467.93
2019-01-09T20:07:03.995Z,98466.31
2019-01-09T20:09:14.938Z,98470.15
2019-01-09T20:11:26.461Z,98465.88
2019-01-09T20:13:38.632Z,98464.59
2019-01-09T20:15:49.575Z,98472.31
2019-01-09T20:18:00.619Z,98476.55
2019-01-09T20:20:53.108Z,98475.66
2019-01-09T20:23:03.998Z,98471.39
2019-01-09T20:25:14.933Z,98483.28
2019-01-09T20:27:25.757Z,98479.31
2019-01-09T20:29:36.673Z,98481.61
2019-01-09T20:31:47.505Z,98483.77
2019-01-09T20:33:58.471Z,98484.97
2019-01-09T20:36:09.346Z,98485.41
2019-01-09T20:38:20.331Z,98487.11
2019-01-09T20:40:31.232Z,98488.30
2019-01-09T20:42:42.140Z,98489.19
2019-01-09T20:44:53.148Z,98486.20
2019-01-09T20:47:04.050Z,98481.08
2019-01-09T20:49:14.833Z,98482.66
2019-01-09T20:51:25.751Z,98478.47
2019-01-09T20:53:36.532Z,98480.19
2019-01-09T20:55:47.482Z,98475.02
2019-01-09T20:57:58.442Z,98485.25
2019-01-09T21:00:29.182Z,98481.03
2019-01-09T21:02:40.085Z,98492.14
2019-01-09T21:04:51.038Z,98495.53
2019-01-09T21:09:20.896Z,98491.31
2019-01-09T21:11:31.773Z,98491.31
2019-01-09T21:13:42.520Z,98493.42
2019-01-09T21:15:53.498Z,98495.98
2019-01-09T21:18:45.925Z,98495.53
2019-01-09T21:20:56.832Z,98502.33
2019-01-09T21:23:07.823Z,98503.70
2019-01-09T21:25:18.870Z,98503.39
2019-01-09T21:27:29.679Z,98505.91
2019-01-09T21:29:40.488Z,98511.91
2019-01-09T21:31:51.322Z,98515.30
2019-01-09T21:34:02.236Z,98515.66
2019-01-09T21:36:13.134Z,98519.44
2019-01-09T21:38:23.938Z,98520.72
2019-01-09T21:40:34.758Z,98521.56
2019-01-09T21:42:45.611Z,98516.88
2019-01-09T21:44:56.445Z,98517.67
2019-01-09T21:47:07.260Z,98518.90
2019-01-09T21:49:18.060Z,98518.51
2019-01-09T21:51:28.856Z,98522.00
2019-01-09T21:53:39.788Z,98519.09
2019-01-09T21:55:50.590Z,98530.16
2019-01-09T21:58:01.521Z,98530.59
2019-01-09T22:00:53.971Z,98527.64
2019-01-09T22:03:04.984Z,98543.39
2019-01-09T22:05:57.441Z,98543.78
2019-01-09T22:08:08.381Z,98545.94
2019-01-09T22:10:39.035Z,98546.78
2019-01-09T22:12:49.825Z,98549.73
2019-01-09T22:15:00.647Z,98551.58
2019-01-09T22:17:11.541Z,98548.19
2019-01-09T22:19:22.472Z,98548.59
2019-01-09T22:21:33.265Z,98550.70
2019-01-09T22:23:44.075Z,98550.26
2019-01-09T22:25:54.874Z,98552.87
2019-01-09T22:30:38.336Z,98562.73
2019-01-09T22:32:49.260Z,98566.22
2019-01-09T22:35:00.223Z,98570.94
2019-01-09T22:37:11.016Z,98570.97
2019-01-09T22:39:21.868Z,98570.02
2019-01-09T22:41:32.689Z,98574.28
2019-01-09T22:43:43.525Z,98576.89
2019-01-09T22:45:54.338Z,98583.68
2019-01-09T22:48:05.134Z,98580.24
2019-01-09T22:50:57.616Z,98580.33
2019-01-09T22:53:08.443Z,98582.87
2019-01-09T22:55:19.255Z,98583.77
2019-01-09T22:57:30.038Z,98580.36
2019-01-09T22:59:40.854Z,98578.64
2019-01-09T23:01:51.670Z,98581.20
2019-01-09T23:04:44.136Z,98575.65
2019-01-09T23:06:55.062Z,98573.97
2019-01-09T23:09:47.526Z,98567.58
2019-01-09T23:11:58.552Z,98574.05
2019-01-09T23:14:09.348Z,98571.50
2019-01-09T23:16:20.137Z,98573.66
2019-01-09T23:18:31.091Z,98580.92
2019-01-09T23:20:41.996Z,98583.08
2019-01-09T23:22:52.815Z,98583.44
2019-01-09T23:25:45.274Z,98587.75
2019-01-09T23:27:56.090Z,98586.91
2019-01-09T23:30:48.542Z,98594.22
2019-01-09T23:32:59.398Z,98579.72
2019-01-09T23:35:51.851Z,98583.13
2019-01-09T23:38:02.706Z,98580.60
2019-01-09T23:40:55.125Z,98580.23
2019-01-09T23:43:05.990Z,98584.00
2019-01-09T23:45:16.774Z,98581.00
2019-01-09T23:47:27.584Z,98582.64
2019-01-09T23:49:38.403Z,98585.64
2019-01-09T23:51:49.199Z,98588.99
2019-01-09T23:54:00.014Z,98589.84
2019-01-09T23:56:10.845Z,98586.39
2019-01-09T23:58:21.682Z,98587.20
